Strona główna
METAR-TAF:

METAR-TAF

Lotnisko :

Linden, New Jersey, Stany Zjednoczone

Szerokość geograficzna: 40-37-03N, Długość geograficzna: 074-14-40W, wysokość: 7 m

Aktualna obserwacja pogody

Raport powstał 17 minut temu, godzina 08:15 UTC
Wiatr 8 kt od zachód w porywach dochodzący do 16 kt
Temperatura -1°C
Wilgotność 46%
Ciśnienie 1011 hPa
Widzialność: 16.1 km
Rozproszone chmury na wysokości 4900 ft

METAR: KLDJ 280815Z AUTO 28008G16KT 10SM SCT049 M01/M11 A2985 RMK AO2 T10061110

czas: 03:32 (08:32 UTC)


TAF: brakujący

Obserwacja i prognoza pogody dla ponad 4000 lotnisk (raport METAR i TAF).

Dostępne stacje oznaczono żółtymi i czerwonymi punktami na mapie.

Najedź kursorem aby zobaczyć nazwę stacji.

Kliknij aby zobaczyć obserwacje i prognozy pogody.

Aby zmienić mapę: kliknij na zielony przycisk z czarnym krzyżykiem, aby powiększyć; na zielony przycisk z myślnikiem, aby pomniejszyć; na zielone strzałki, aby przejść do map sąsiednich.


METAR-TAF: